createdAt,value
2019-02-10T00:00:55.344Z,7.40
2019-02-10T00:03:28.780Z,7.50
2019-02-10T00:06:02.217Z,7.60
2019-02-10T00:08:35.650Z,7.70
2019-02-10T00:11:09.083Z,7.70
2019-02-10T00:13:42.525Z,7.70
2019-02-10T00:16:17.053Z,7.80
2019-02-10T00:18:50.489Z,7.80
2019-02-10T00:21:23.923Z,7.80
2019-02-10T00:23:57.424Z,7.80
2019-02-10T00:26:30.862Z,7.90
2019-02-10T00:29:04.348Z,7.90
2019-02-10T00:31:37.777Z,7.90
2019-02-10T00:34:11.205Z,7.90
2019-02-10T00:36:44.625Z,7.90
2019-02-10T00:39:18.075Z,7.90
2019-02-10T00:41:51.492Z,7.90
2019-02-10T00:44:24.926Z,7.80
2019-02-10T00:46:58.353Z,7.80
2019-02-10T00:49:31.804Z,7.70
2019-02-10T00:52:05.242Z,7.60
2019-02-10T00:54:38.670Z,7.50
2019-02-10T00:57:12.105Z,7.40
2019-02-10T00:59:45.532Z,7.30
2019-02-10T01:02:18.963Z,7.30
2019-02-10T01:04:52.413Z,7.20
2019-02-10T01:07:25.837Z,7.20
2019-02-10T01:09:59.277Z,7.20
2019-02-10T01:12:32.701Z,7.10
2019-02-10T01:15:07.367Z,7.10
2019-02-10T01:17:40.799Z,7.00
2019-02-10T01:20:14.244Z,7.00
2019-02-10T01:22:47.734Z,6.90
2019-02-10T01:25:21.174Z,6.90
2019-02-10T01:27:54.593Z,6.90
2019-02-10T01:30:28.177Z,6.80
2019-02-10T01:33:01.601Z,6.80
2019-02-10T01:35:35.096Z,6.70
2019-02-10T01:38:08.934Z,6.70
2019-02-10T01:40:42.373Z,6.60
2019-02-10T01:43:15.788Z,6.60
2019-02-10T01:45:49.224Z,6.60
2019-02-10T01:48:22.643Z,6.50
2019-02-10T01:50:56.124Z,6.50
2019-02-10T01:53:29.544Z,6.40
2019-02-10T01:56:02.989Z,6.40
2019-02-10T01:58:36.404Z,6.40
2019-02-10T02:01:09.832Z,6.40
2019-02-10T02:03:43.253Z,6.40
2019-02-10T02:06:16.685Z,6.40
2019-02-10T02:08:50.114Z,6.30
2019-02-10T02:11:23.553Z,6.30
2019-02-10T02:13:57.049Z,6.30
2019-02-10T02:16:30.490Z,6.40
2019-02-10T02:19:03.919Z,6.40
2019-02-10T02:21:37.363Z,6.40
2019-02-10T02:24:10.771Z,6.40
2019-02-10T02:26:44.210Z,6.50
2019-02-10T02:29:17.656Z,6.50
2019-02-10T02:31:51.109Z,6.50
2019-02-10T02:34:24.513Z,6.50
2019-02-10T02:37:07.326Z,6.50
2019-02-10T02:39:33.090Z,6.50
2019-02-10T02:42:06.528Z,6.50
2019-02-10T02:44:39.953Z,6.60
2019-02-10T02:47:13.393Z,6.60
2019-02-10T02:49:46.819Z,6.50
2019-02-10T02:52:20.261Z,6.60
2019-02-10T02:54:53.691Z,6.60
2019-02-10T02:57:27.148Z,6.60
2019-02-10T03:00:00.578Z,6.70
2019-02-10T03:02:34.004Z,6.70
2019-02-10T03:05:09.658Z,6.70
2019-02-10T03:07:43.192Z,6.70
2019-02-10T03:10:16.683Z,6.80
2019-02-10T03:12:50.110Z,6.80
2019-02-10T03:15:23.531Z,6.80
2019-02-10T03:17:56.970Z,6.80
2019-02-10T03:20:30.393Z,6.90
2019-02-10T03:23:03.859Z,7.00
2019-02-10T03:25:37.286Z,7.10
2019-02-10T03:28:10.730Z,7.10
2019-02-10T03:30:44.154Z,7.10
2019-02-10T03:33:17.587Z,7.10
2019-02-10T03:35:51.007Z,7.20
2019-02-10T03:38:24.449Z,7.20
2019-02-10T03:40:57.879Z,7.20
2019-02-10T03:43:31.311Z,7.30
2019-02-10T03:46:04.734Z,7.40
2019-02-10T03:48:57.514Z,7.50
2019-02-10T03:51:30.928Z,7.50
2019-02-10T03:54:04.410Z,7.50
2019-02-10T03:56:37.831Z,7.60
2019-02-10T03:59:11.259Z,7.60
2019-02-10T04:01:44.688Z,7.60
2019-02-10T04:04:18.133Z,7.70
2019-02-10T04:06:51.552Z,7.70
2019-02-10T04:09:24.989Z,7.80
2019-02-10T04:11:58.407Z,7.80
2019-02-10T04:14:32.408Z,7.80
2019-02-10T04:17:06.056Z,7.80
2019-02-10T04:19:39.500Z,7.80
2019-02-10T04:22:12.918Z,7.90
2019-02-10T04:24:46.364Z,7.90
2019-02-10T04:27:19.787Z,8.00
2019-02-10T04:29:53.225Z,8.00
2019-02-10T04:32:26.649Z,8.00
2019-02-10T04:35:00.142Z,8.00
2019-02-10T04:37:33.790Z,8.00
2019-02-10T04:40:08.092Z,8.10
2019-02-10T04:42:41.509Z,8.10
2019-02-10T04:45:14.967Z,8.10
2019-02-10T04:47:48.577Z,8.10
2019-02-10T04:50:22.012Z,8.20
2019-02-10T04:52:55.442Z,8.20
2019-02-10T04:55:28.868Z,8.20
2019-02-10T04:58:02.292Z,8.20
2019-02-10T05:00:35.739Z,8.30
2019-02-10T05:03:09.313Z,8.20
2019-02-10T05:05:42.762Z,8.20
2019-02-10T05:08:16.170Z,8.30
2019-02-10T05:10:49.605Z,8.20
2019-02-10T05:13:23.019Z,8.30
2019-02-10T05:15:56.449Z,8.30
2019-02-10T05:18:29.871Z,8.30
2019-02-10T05:21:03.303Z,8.30
2019-02-10T05:23:36.729Z,8.40
2019-02-10T05:26:10.155Z,8.40
2019-02-10T05:28:43.571Z,8.40
2019-02-10T05:31:17.033Z,8.40
2019-02-10T05:33:50.465Z,8.40
2019-02-10T05:36:27.217Z,8.40
2019-02-10T05:39:00.641Z,8.50
2019-02-10T05:41:34.084Z,8.50
2019-02-10T05:44:07.519Z,8.50
2019-02-10T05:46:41.013Z,8.60
2019-02-10T05:49:14.424Z,8.60
2019-02-10T05:51:47.852Z,8.60
2019-02-10T05:54:21.270Z,8.60
2019-02-10T05:56:54.711Z,8.70
2019-02-10T05:59:28.130Z,8.70
2019-02-10T06:02:04.844Z,8.70
2019-02-10T06:04:41.406Z,8.70
2019-02-10T06:07:16.727Z,8.70
2019-02-10T06:09:50.581Z,8.80
2019-02-10T06:12:24.005Z,8.80
2019-02-10T06:14:57.501Z,8.80
2019-02-10T06:17:30.948Z,8.80
2019-02-10T06:20:07.077Z,8.80
2019-02-10T06:22:40.552Z,8.90
2019-02-10T06:25:13.970Z,8.90
2019-02-10T06:27:47.401Z,8.90
2019-02-10T06:30:20.830Z,8.90
2019-02-10T06:32:54.266Z,9.00
2019-02-10T06:35:27.688Z,9.00
2019-02-10T06:38:01.128Z,9.00
2019-02-10T06:40:34.551Z,9.00
2019-02-10T06:43:07.990Z,9.00
2019-02-10T06:45:41.403Z,8.90
2019-02-10T06:48:14.845Z,9.00
2019-02-10T06:50:48.276Z,9.00
2019-02-10T06:53:21.707Z,9.00
2019-02-10T06:55:55.129Z,9.00
2019-02-10T06:58:28.555Z,9.00
2019-02-10T07:01:06.344Z,9.00
2019-02-10T07:03:44.461Z,9.00
2019-02-10T07:06:17.871Z,9.00
2019-02-10T07:08:51.298Z,9.00
2019-02-10T07:11:24.719Z,9.00
2019-02-10T07:13:58.897Z,9.00
2019-02-10T07:16:48.660Z,9.10
2019-02-10T07:19:58.265Z,9.10
2019-02-10T07:22:34.767Z,9.10
2019-02-10T07:25:17.237Z,9.10
2019-02-10T07:28:02.379Z,9.10
2019-02-10T07:30:50.250Z,9.10
2019-02-10T07:33:29.327Z,9.10
2019-02-10T07:36:11.509Z,9.10
2019-02-10T07:38:51.037Z,9.20
2019-02-10T07:41:36.475Z,9.20
2019-02-10T07:44:30.528Z,9.20
2019-02-10T07:47:16.154Z,9.20
2019-02-10T07:49:58.461Z,9.20
2019-02-10T07:52:59.286Z,9.20
2019-02-10T07:55:55.156Z,9.30
2019-02-10T07:58:31.672Z,9.30
2019-02-10T08:01:23.065Z,9.30
2019-02-10T08:04:20.628Z,9.30
2019-02-10T08:07:05.976Z,9.40
2019-02-10T08:09:45.395Z,9.40
2019-02-10T08:12:27.933Z,9.40
2019-02-10T08:15:19.267Z,9.30
2019-02-10T08:18:20.914Z,9.30
2019-02-10T08:21:03.185Z,9.30
2019-02-10T08:23:39.689Z,9.30
2019-02-10T08:26:37.209Z,9.40
2019-02-10T08:29:25.833Z,9.30
2019-02-10T08:32:17.100Z,9.40
2019-02-10T08:35:07.844Z,9.40
2019-02-10T08:37:53.116Z,9.30
2019-02-10T08:40:38.569Z,9.40
2019-02-10T08:43:17.988Z,9.50
2019-02-10T08:46:03.433Z,9.50
2019-02-10T08:48:48.529Z,9.50
2019-02-10T08:51:41.444Z,9.50
2019-02-10T08:54:15.013Z,9.50
2019-02-10T08:56:48.469Z,9.60
2019-02-10T08:59:21.897Z,9.60
2019-02-10T09:01:55.335Z,9.60
2019-02-10T09:04:28.772Z,9.60
2019-02-10T09:07:02.216Z,9.60
2019-02-10T09:09:35.629Z,9.70
2019-02-10T09:12:09.209Z,9.70
2019-02-10T09:14:42.633Z,9.80
2019-02-10T09:17:16.075Z,9.90
2019-02-10T09:19:49.498Z,9.90
2019-02-10T09:22:22.935Z,10.00
2019-02-10T09:24:56.362Z,10.10
2019-02-10T09:27:29.796Z,10.20
2019-02-10T09:30:03.892Z,10.20
2019-02-10T09:32:37.356Z,10.40
2019-02-10T09:35:10.845Z,10.50
2019-02-10T09:37:44.299Z,10.60
2019-02-10T09:40:17.751Z,10.80
2019-02-10T09:42:51.180Z,10.90
2019-02-10T09:45:24.603Z,11.00
2019-02-10T09:47:58.304Z,11.10
2019-02-10T09:50:31.778Z,11.20
2019-02-10T09:53:05.249Z,11.30
2019-02-10T09:55:38.673Z,11.40
2019-02-10T09:58:12.107Z,11.40
2019-02-10T10:00:45.540Z,11.50
2019-02-10T10:03:18.973Z,11.50
2019-02-10T10:05:52.405Z,11.50
2019-02-10T10:08:25.858Z,11.60
2019-02-10T10:10:59.275Z,11.70
2019-02-10T10:13:32.737Z,11.80
2019-02-10T10:16:06.160Z,11.90
2019-02-10T10:18:39.593Z,11.90
2019-02-10T10:21:13.029Z,11.90
2019-02-10T10:24:05.801Z,12.00
2019-02-10T10:26:39.229Z,12.00
2019-02-10T10:29:12.661Z,12.00
2019-02-10T10:31:46.088Z,12.00
2019-02-10T10:34:19.532Z,12.00
2019-02-10T10:36:52.968Z,12.10
2019-02-10T10:39:27.645Z,12.10
2019-02-10T10:42:01.351Z,12.20
2019-02-10T10:44:34.863Z,12.20
2019-02-10T10:47:08.300Z,12.20
2019-02-10T10:49:41.747Z,12.30
2019-02-10T10:52:15.284Z,12.30
2019-02-10T10:54:48.711Z,12.30
2019-02-10T10:57:22.146Z,12.40
2019-02-10T10:59:55.588Z,12.40
2019-02-10T11:02:29.013Z,12.50
2019-02-10T11:05:02.477Z,12.50
2019-02-10T11:07:35.899Z,12.60
2019-02-10T11:10:11.583Z,12.60
2019-02-10T11:12:45.017Z,12.70
2019-02-10T11:15:18.474Z,12.80
2019-02-10T11:17:51.896Z,12.90
2019-02-10T11:20:25.332Z,12.90
2019-02-10T11:22:58.752Z,13.00
2019-02-10T11:25:32.201Z,13.10
2019-02-10T11:28:05.627Z,13.20
2019-02-10T11:30:39.075Z,13.20
2019-02-10T11:33:12.508Z,13.10
2019-02-10T11:35:45.955Z,13.10
2019-02-10T11:38:19.374Z,13.20
2019-02-10T11:40:52.813Z,13.20
2019-02-10T11:43:26.272Z,13.20
2019-02-10T11:45:59.757Z,13.20
2019-02-10T11:48:33.219Z,13.20
2019-02-10T11:51:06.752Z,13.20
2019-02-10T11:53:40.181Z,13.20
2019-02-10T11:56:13.615Z,13.30
2019-02-10T11:58:47.032Z,13.30
2019-02-10T12:01:20.508Z,13.40
2019-02-10T12:03:53.941Z,13.30
2019-02-10T12:06:28.508Z,13.30
2019-02-10T12:09:01.937Z,13.30
2019-02-10T12:11:35.368Z,13.30
2019-02-10T12:14:08.859Z,13.30
2019-02-10T12:16:43.840Z,13.30
2019-02-10T12:19:17.279Z,13.20
2019-02-10T12:21:50.717Z,13.20
2019-02-10T12:24:24.188Z,13.10
2019-02-10T12:26:57.641Z,13.10
2019-02-10T12:29:31.090Z,13.10
2019-02-10T12:32:04.521Z,13.10
2019-02-10T12:34:37.969Z,13.00
2019-02-10T12:37:11.404Z,13.10
2019-02-10T12:39:44.831Z,13.00
2019-02-10T12:42:18.263Z,13.10
2019-02-10T12:44:51.720Z,13.10
2019-02-10T12:47:25.153Z,13.10
2019-02-10T12:49:58.601Z,13.00
2019-02-10T12:52:32.033Z,13.00
2019-02-10T12:55:07.645Z,13.00
2019-02-10T12:57:41.075Z,13.00
2019-02-10T13:00:17.028Z,13.00
2019-02-10T13:02:50.453Z,13.00
2019-02-10T13:05:23.892Z,12.90
2019-02-10T13:07:57.383Z,12.90
2019-02-10T13:10:30.821Z,12.80
2019-02-10T13:13:04.249Z,12.80
2019-02-10T13:15:37.694Z,12.70
2019-02-10T13:18:11.126Z,12.60
2019-02-10T13:20:44.571Z,12.60
2019-02-10T13:23:17.980Z,12.60
2019-02-10T13:25:51.427Z,12.50
2019-02-10T13:28:24.866Z,12.40
2019-02-10T13:30:58.379Z,12.30
2019-02-10T13:33:31.793Z,12.20
2019-02-10T13:36:05.317Z,12.20
2019-02-10T13:38:38.754Z,12.10
2019-02-10T13:41:12.200Z,12.00
2019-02-10T13:43:45.619Z,12.00
2019-02-10T13:46:19.110Z,12.00
2019-02-10T13:48:52.544Z,11.90
2019-02-10T13:51:26.008Z,11.80
2019-02-10T13:53:59.439Z,11.70
2019-02-10T13:56:32.886Z,11.70
2019-02-10T13:59:06.304Z,11.70
2019-02-10T14:01:39.801Z,11.70
2019-02-10T14:04:13.292Z,11.60
2019-02-10T14:06:46.732Z,11.60
2019-02-10T14:09:20.154Z,11.60
2019-02-10T14:11:53.597Z,11.60
2019-02-10T14:14:27.057Z,11.60
2019-02-10T14:17:01.870Z,11.60
2019-02-10T14:19:35.591Z,11.60
2019-02-10T14:22:09.044Z,11.60
2019-02-10T14:24:42.480Z,11.60
2019-02-10T14:27:16.348Z,11.60
2019-02-10T14:29:49.789Z,11.60
2019-02-10T14:32:23.219Z,11.60
2019-02-10T14:34:56.653Z,11.60
2019-02-10T14:37:30.293Z,11.60
2019-02-10T14:40:04.772Z,11.60
2019-02-10T14:42:38.317Z,11.60
2019-02-10T14:45:13.682Z,11.60
2019-02-10T14:47:47.119Z,11.60
2019-02-10T14:50:20.544Z,11.60
2019-02-10T14:52:53.985Z,11.60
2019-02-10T14:55:27.420Z,11.60
2019-02-10T14:58:00.875Z,11.60
2019-02-10T15:00:34.280Z,11.60
2019-02-10T15:03:09.364Z,11.60
2019-02-10T15:05:42.781Z,11.60
2019-02-10T15:08:16.236Z,11.60
2019-02-10T15:10:49.668Z,11.60
2019-02-10T15:13:23.099Z,11.60
2019-02-10T15:15:56.530Z,11.60
2019-02-10T15:18:29.965Z,11.50
2019-02-10T15:21:03.392Z,11.60
2019-02-10T15:23:36.834Z,11.60
2019-02-10T15:26:10.267Z,11.50
2019-02-10T15:28:43.697Z,11.50
2019-02-10T15:31:17.154Z,11.50
2019-02-10T15:33:50.571Z,11.50
2019-02-10T15:36:24.006Z,11.40
2019-02-10T15:38:57.572Z,11.40
2019-02-10T15:41:30.991Z,11.40
2019-02-10T15:44:04.713Z,11.30
2019-02-10T15:46:38.141Z,11.30
2019-02-10T15:49:11.581Z,11.10
2019-02-10T15:51:45.012Z,10.60
2019-02-10T15:54:18.452Z,10.50
2019-02-10T15:56:51.870Z,10.20
2019-02-10T15:59:25.368Z,9.90
2019-02-10T16:01:58.796Z,9.70
2019-02-10T16:04:32.265Z,9.70
2019-02-10T16:07:05.687Z,9.70
2019-02-10T16:09:39.173Z,9.70
2019-02-10T16:12:12.609Z,9.80
2019-02-10T16:14:46.040Z,9.70
2019-02-10T16:17:19.464Z,9.80
2019-02-10T16:19:52.905Z,9.80
2019-02-10T16:22:26.333Z,9.80
2019-02-10T16:24:59.757Z,9.80
2019-02-10T16:27:33.198Z,9.80
2019-02-10T16:30:09.842Z,9.80
2019-02-10T16:32:49.573Z,9.80
2019-02-10T16:35:18.521Z,9.80
2019-02-10T16:37:51.924Z,9.70
2019-02-10T16:40:25.358Z,9.70
2019-02-10T16:42:58.774Z,9.80
2019-02-10T16:45:32.213Z,9.80
2019-02-10T16:48:05.652Z,9.80
2019-02-10T16:50:39.091Z,9.80
2019-02-10T16:53:12.535Z,9.80
2019-02-10T16:55:45.990Z,9.70
2019-02-10T16:58:19.409Z,9.70
2019-02-10T17:00:52.852Z,9.70
2019-02-10T17:03:45.626Z,9.70
2019-02-10T17:06:19.065Z,9.60
2019-02-10T17:08:52.537Z,9.60
2019-02-10T17:11:26.030Z,9.50
2019-02-10T17:13:59.481Z,9.50
2019-02-10T17:16:32.936Z,9.50
2019-02-10T17:19:06.357Z,9.50
2019-02-10T17:21:39.797Z,9.50
2019-02-10T17:24:13.233Z,9.40
2019-02-10T17:26:46.675Z,9.40
2019-02-10T17:29:20.100Z,9.30
2019-02-10T17:31:53.553Z,9.30
2019-02-10T17:34:26.988Z,9.40
2019-02-10T17:37:00.436Z,9.30
2019-02-10T17:39:33.885Z,9.30
2019-02-10T17:42:07.347Z,9.30
2019-02-10T17:44:40.821Z,9.20
2019-02-10T17:47:14.266Z,9.20
2019-02-10T17:49:47.697Z,9.20
2019-02-10T17:52:21.125Z,9.20
2019-02-10T17:54:54.569Z,9.20
2019-02-10T17:57:28.000Z,9.20
2019-02-10T18:00:01.423Z,9.20
2019-02-10T18:02:34.937Z,9.20
2019-02-10T18:05:09.093Z,9.20
2019-02-10T18:07:42.537Z,9.10
2019-02-10T18:10:16.110Z,9.10
2019-02-10T18:12:49.544Z,9.10
2019-02-10T18:15:24.614Z,9.10
2019-02-10T18:18:02.629Z,9.10
2019-02-10T18:20:40.384Z,9.10
2019-02-10T18:23:15.456Z,9.10
2019-02-10T18:25:54.680Z,9.00
2019-02-10T18:28:38.636Z,8.90
2019-02-10T18:31:28.909Z,9.00
2019-02-10T18:34:03.981Z,9.00
2019-02-10T18:36:41.747Z,9.00
2019-02-10T18:39:19.394Z,9.00
2019-02-10T18:41:54.451Z,9.00
2019-02-10T18:44:35.497Z,9.00
2019-02-10T18:47:19.692Z,9.00
2019-02-10T18:49:54.766Z,9.10
2019-02-10T18:52:29.829Z,8.90
2019-02-10T18:55:13.958Z,8.90
2019-02-10T18:58:04.253Z,8.80
2019-02-10T19:00:39.396Z,8.80
2019-02-10T19:03:14.449Z,8.60
2019-02-10T19:05:49.516Z,8.50
2019-02-10T19:08:30.283Z,8.40
2019-02-10T19:11:10.863Z,8.30
2019-02-10T19:14:02.424Z,8.20
2019-02-10T19:16:37.489Z,8.10
2019-02-10T19:19:12.626Z,8.10
2019-02-10T19:21:47.699Z,8.20
2019-02-10T19:24:22.775Z,8.20
2019-02-10T19:27:06.666Z,8.20
2019-02-10T19:29:41.771Z,8.20
2019-02-10T19:32:32.108Z,8.20
2019-02-10T19:35:13.256Z,8.20
2019-02-10T19:38:04.817Z,8.20
2019-02-10T19:40:42.666Z,8.30
2019-02-10T19:43:23.701Z,8.30
2019-02-10T19:46:01.525Z,8.30
2019-02-10T19:48:42.268Z,8.30
2019-02-10T19:51:20.433Z,8.30
2019-02-10T19:53:58.616Z,8.30
2019-02-10T19:56:48.956Z,8.40
2019-02-10T19:59:40.129Z,8.40
2019-02-10T20:02:31.507Z,8.40
2019-02-10T20:05:17.100Z,8.40
2019-02-10T20:08:04.096Z,8.40
2019-02-10T20:10:39.200Z,8.50
2019-02-10T20:13:26.370Z,8.50
2019-02-10T20:16:01.570Z,8.50
2019-02-10T20:18:51.924Z,8.50
2019-02-10T20:21:26.993Z,8.50
2019-02-10T20:24:08.057Z,8.40
2019-02-10T20:26:59.432Z,8.40
2019-02-10T20:29:37.639Z,8.30
2019-02-10T20:32:13.068Z,8.30
2019-02-10T20:34:54.135Z,8.40
2019-02-10T20:37:29.289Z,8.30
2019-02-10T20:40:13.174Z,8.30
2019-02-10T20:42:48.236Z,8.30
2019-02-10T20:45:26.224Z,8.30
2019-02-10T20:48:10.462Z,8.30
2019-02-10T20:50:48.481Z,8.20
2019-02-10T20:53:26.571Z,8.20
2019-02-10T20:56:01.637Z,8.10
2019-02-10T20:58:39.710Z,8.00
2019-02-10T21:01:14.769Z,8.00
2019-02-10T21:04:05.200Z,7.90
2019-02-10T21:06:45.978Z,7.90
2019-02-10T21:09:23.948Z,7.80
2019-02-10T21:12:20.373Z,7.80
2019-02-10T21:15:03.900Z,7.80
2019-02-10T21:17:53.897Z,7.70
2019-02-10T21:20:28.951Z,7.70
2019-02-10T21:23:09.733Z,7.70
2019-02-10T21:25:56.728Z,7.60
2019-02-10T21:28:32.529Z,7.50
2019-02-10T21:31:13.589Z,7.40
2019-02-10T21:33:57.579Z,7.40
2019-02-10T21:36:32.636Z,7.40
2019-02-10T21:39:20.261Z,7.30
2019-02-10T21:41:58.083Z,7.30
2019-02-10T21:44:33.182Z,7.20
2019-02-10T21:47:24.341Z,7.20
2019-02-10T21:49:57.846Z,7.20
2019-02-10T21:52:31.274Z,7.10
2019-02-10T21:55:06.347Z,7.10
2019-02-10T21:57:39.765Z,7.10
2019-02-10T22:00:14.531Z,7.10
2019-02-10T22:02:47.964Z,7.10
2019-02-10T22:05:21.666Z,7.10
2019-02-10T22:07:55.125Z,7.10
2019-02-10T22:10:28.615Z,7.10
2019-02-10T22:13:02.056Z,7.10
2019-02-10T22:15:35.508Z,7.10
2019-02-10T22:18:08.928Z,7.20
2019-02-10T22:20:42.360Z,7.20
2019-02-10T22:23:15.788Z,7.30
2019-02-10T22:25:49.228Z,7.30
2019-02-10T22:28:22.650Z,7.30
2019-02-10T22:30:56.088Z,7.30
2019-02-10T22:33:29.521Z,7.30
2019-02-10T22:36:02.977Z,7.30
2019-02-10T22:38:36.448Z,7.30
2019-02-10T22:41:09.889Z,7.40
2019-02-10T22:43:43.313Z,7.40
2019-02-10T22:46:16.747Z,7.40
2019-02-10T22:48:50.161Z,7.40
2019-02-10T22:51:23.595Z,7.40
2019-02-10T22:53:57.013Z,7.40
2019-02-10T22:56:30.449Z,7.40
2019-02-10T22:59:03.872Z,7.40
2019-02-10T23:01:37.309Z,7.40
2019-02-10T23:04:10.733Z,7.40
2019-02-10T23:06:45.114Z,7.40
2019-02-10T23:09:20.377Z,7.40
2019-02-10T23:11:53.877Z,7.30
2019-02-10T23:14:27.293Z,7.40
2019-02-10T23:17:00.733Z,7.40
2019-02-10T23:19:34.154Z,7.40
2019-02-10T23:22:07.585Z,7.40
2019-02-10T23:24:41.001Z,7.40
2019-02-10T23:27:14.455Z,7.40
2019-02-10T23:29:47.866Z,7.40
2019-02-10T23:32:21.293Z,7.40
2019-02-10T23:34:54.721Z,7.40
2019-02-10T23:37:28.232Z,7.40
2019-02-10T23:40:03.063Z,7.40
2019-02-10T23:42:36.759Z,7.40
2019-02-10T23:45:10.381Z,7.40
2019-02-10T23:47:43.807Z,7.40
2019-02-10T23:50:17.318Z,7.50
2019-02-10T23:52:50.752Z,7.50
2019-02-10T23:55:24.168Z,7.50
2019-02-10T23:57:57.597Z,7.50
